Hamilton, MT (59840)

2:26 PM MST on February 11, 2016 (GMT -0700)
Hamilton West Side | | Change Station
CLOSE
Current Station
Personal Weather Station
Location: Hamilton, MT
Elevation: 3615 ft
Nearby Weather Stations

Elev 3615 ft 46.25 °N, 114.18 °W | Updated 56 seconds ago

Overcast
Overcast
49.8 °F
Feels Like 50 °F
N
2.0
Wind Variable Wind from ESE
Gusts 2.2 mph

Today
High -- | Low -- °F
--% Chance of Precip.
Yesterday
High -- | Low -- °F
Precip. -- in
Pressure 30.32 in
Visibility 10.0 miles
Clouds Clear
Windchill 50 °F
Dew Point 32 °F
Humidity 50%
Rainfall 0.00 in
Snow Depth Not available.
7:46 AM 5:55 PM
Waxing Crescent, 14% visible
METAR KMSO 112053Z 00000KT 10SM CLR 09/01 A3027 RMK AO2 SLP268 T00940006 58014
Pressure 30.32 in
Visibility 10.0 miles
Clouds Clear
Windchill 50 °F
Dew Point 32 °F
Humidity 50%
Rainfall 0.00 in
Snow Depth Not available.
7:46 AM 5:55 PM
Waxing Crescent, 14% visible
METAR KMSO 112053Z 00000KT 10SM CLR 09/01 A3027 RMK AO2 SLP268 T00940006 58014

10-Day Weather Forecast

Almanac

Astronomy

Feb. 11, 2016 Rise Set
Actual Time
Civil Twilight
Nautical Twilight
Astronomical Twilight
Moon
Length of Visible Light
Length of Day
Tomorrow will be .
, % of the Moon is Illuminated

Today's Extremes

State Highs State Lows

Community

WunderPhotos

Upload Photos

1,892,160 photos uploaded!

WunderBlog® & News

Nearby

Air Quality

  Air Quality AQ Index Pollutant
Not available.

Snow Depth

Station Depth Elevation

Earthquake Activity

City Distance Mag. Time & Date
Minimum magnitude displayed is 2.5.

Coastal Water Temperatures

Place Temperature

Stations

Nearby Weather Stations

Station Location Temp. Windchill Dew Point Humidity Wind Precip. Elev Updated Type
                   

Watches & Warnings

There are currently no watches in effect.